BER8SH LIPZ-EDDL
Flight info
| Callsign | BER8SH |
|---|---|
| Flight time | 1h 17m |
| Altitude | 32000 |
| Route | ROKIB DCT UNIMI DCT MOGTI DCT KPT DCT HAREM DCT LOHRE Z850 ADEMI T854 DOMUX DOMUX1A |
| Aircraft | A320/M-SDE3FGHIRWY/LB1 |
Departure
| Time | 2026-05-04 19:15 |
|---|---|
| Airport | Venice Marco Polo Airport (LIPZ) |
Arrival
| Time | 2026-05-04 20:33 |
|---|---|
| Airport | Düsseldorf Airport (EDDL) |
| Time | Latitude | Longitude | Altitude | Speed | Heading |
|---|---|---|---|---|---|
| 2026-05-04 18:57 | 45.50810 | 12.34321 | 16 ft | 0 kts | 222° |
| 2026-05-04 19:05 | 45.50812 | 12.34324 | 15 ft | 3 kts | 222° |
| 2026-05-04 19:05 | 45.50832 | 12.34348 | 15 ft | 4 kts | 214° |
| 2026-05-04 19:05 | 45.50855 | 12.34366 | 17 ft | 4 kts | 190° |
| 2026-05-04 19:05 | 45.50876 | 12.34362 | 15 ft | 1 kts | 133° |
| 2026-05-04 19:08 | 45.50873 | 12.34366 | 15 ft | 2 kts | 132° |
| 2026-05-04 19:09 | 45.50856 | 12.34392 | 15 ft | 1 kts | 132° |
| 2026-05-04 19:09 | 45.50855 | 12.34394 | 15 ft | 0 kts | 132° |
| 2026-05-04 19:09 | 45.50855 | 12.34395 | 15 ft | 0 kts | 132° |
| 2026-05-04 19:09 | 45.50845 | 12.34410 | 15 ft | 5 kts | 132° |
| 2026-05-04 19:10 | 45.50810 | 12.34465 | 17 ft | 10 kts | 132° |
| 2026-05-04 19:10 | 45.50750 | 12.34558 | 16 ft | 15 kts | 132° |
| 2026-05-04 19:10 | 45.50694 | 12.34644 | 17 ft | 1 kts | 133° |
| 2026-05-04 19:10 | 45.50675 | 12.34675 | 15 ft | 7 kts | 133° |
| 2026-05-04 19:11 | 45.50638 | 12.34732 | 17 ft | 11 kts | 127° |
| 2026-05-04 19:11 | 45.50671 | 12.34840 | 16 ft | 16 kts | 40° |
| 2026-05-04 19:11 | 45.50764 | 12.34961 | 17 ft | 21 kts | 43° |
| 2026-05-04 19:11 | 45.50877 | 12.35103 | 16 ft | 21 kts | 43° |
| 2026-05-04 19:12 | 45.50965 | 12.35249 | 16 ft | 20 kts | 68° |
| 2026-05-04 19:12 | 45.51135 | 12.35637 | 16 ft | 28 kts | 48° |
| 2026-05-04 19:12 | 45.51262 | 12.35812 | 14 ft | 20 kts | 41° |
| 2026-05-04 19:13 | 45.51218 | 12.35890 | 14 ft | 15 kts | 185° |
| 2026-05-04 19:13 | 45.51151 | 12.35963 | 13 ft | 13 kts | 138° |
| 2026-05-04 19:13 | 45.51088 | 12.35927 | 13 ft | 10 kts | 221° |
| 2026-05-04 19:13 | 45.51074 | 12.35909 | 14 ft | 0 kts | 221° |
| 2026-05-04 19:14 | 45.51072 | 12.35908 | 14 ft | 2 kts | 221° |
| 2026-05-04 19:14 | 45.50936 | 12.35739 | 15 ft | 62 kts | 220° |
| 2026-05-04 19:15 | 45.50446 | 12.35110 | 14 ft | 125 kts | 222° |
| 2026-05-04 19:15 | 45.49692 | 12.34123 | 166 ft | 157 kts | 221° |
| 2026-05-04 19:15 | 45.48917 | 12.33054 | 794 ft | 155 kts | 220° |
| 2026-05-04 19:15 | 45.48125 | 12.32029 | 1488 ft | 154 kts | 220° |
| 2026-05-04 19:16 | 45.47310 | 12.31002 | 2045 ft | 163 kts | 221° |
| 2026-05-04 19:16 | 45.46402 | 12.29862 | 2327 ft | 185 kts | 221° |
| 2026-05-04 19:16 | 45.45397 | 12.28600 | 2644 ft | 205 kts | 221° |
| 2026-05-04 19:16 | 45.44312 | 12.27235 | 3267 ft | 211 kts | 222° |
| 2026-05-04 19:17 | 45.43202 | 12.25825 | 3988 ft | 215 kts | 222° |
| 2026-05-04 19:17 | 45.42082 | 12.24392 | 4763 ft | 218 kts | 222° |
| 2026-05-04 19:17 | 45.40949 | 12.22940 | 5509 ft | 221 kts | 222° |
| 2026-05-04 19:17 | 45.39802 | 12.21472 | 6274 ft | 223 kts | 222° |
| 2026-05-04 19:18 | 45.38863 | 12.19731 | 6973 ft | 226 kts | 249° |
| 2026-05-04 19:18 | 45.38762 | 12.17503 | 7669 ft | 233 kts | 283° |
| 2026-05-04 19:18 | 45.39586 | 12.15502 | 8365 ft | 240 kts | 308° |
| 2026-05-04 19:18 | 45.40699 | 12.13727 | 9101 ft | 243 kts | 307° |
| 2026-05-04 19:19 | 45.41569 | 12.11691 | 9797 ft | 241 kts | 285° |
| 2026-05-04 19:19 | 45.41836 | 12.09352 | 10411 ft | 243 kts | 264° |
| 2026-05-04 19:19 | 45.41438 | 12.06947 | 10699 ft | 260 kts | 243° |
| 2026-05-04 19:19 | 45.40622 | 12.04519 | 10987 ft | 284 kts | 242° |
| 2026-05-04 19:20 | 45.39733 | 12.01883 | 11256 ft | 307 kts | 242° |
| 2026-05-04 19:20 | 45.38949 | 11.98964 | 11708 ft | 325 kts | 258° |
| 2026-05-04 19:20 | 45.39104 | 11.95716 | 12383 ft | 339 kts | 286° |
| 2026-05-04 19:20 | 45.40346 | 11.92816 | 13096 ft | 352 kts | 312° |
| 2026-05-04 19:21 | 45.42199 | 11.90485 | 13841 ft | 358 kts | 319° |
| 2026-05-04 19:21 | 45.44251 | 11.88448 | 14499 ft | 364 kts | 331° |
| 2026-05-04 19:21 | 45.46622 | 11.87156 | 15217 ft | 367 kts | 344° |
| 2026-05-04 19:21 | 45.49145 | 11.86517 | 15953 ft | 369 kts | 354° |
| 2026-05-04 19:22 | 45.51712 | 11.86263 | 16686 ft | 370 kts | 354° |
| 2026-05-04 19:22 | 45.54287 | 11.85977 | 17412 ft | 371 kts | 354° |
| 2026-05-04 19:22 | 45.56836 | 11.85667 | 18123 ft | 373 kts | 353° |
| 2026-05-04 19:22 | 45.59428 | 11.85345 | 18747 ft | 375 kts | 353° |
| 2026-05-04 19:23 | 45.62037 | 11.85025 | 19323 ft | 378 kts | 353° |
| 2026-05-04 19:23 | 45.64669 | 11.84716 | 19879 ft | 381 kts | 354° |
| 2026-05-04 19:23 | 45.67330 | 11.84416 | 20437 ft | 385 kts | 354° |
| 2026-05-04 19:23 | 45.70011 | 11.84111 | 20991 ft | 388 kts | 352° |
| 2026-05-04 19:24 | 45.72664 | 11.83372 | 21532 ft | 390 kts | 342° |
| 2026-05-04 19:24 | 45.75190 | 11.81963 | 22077 ft | 392 kts | 333° |
| 2026-05-04 19:24 | 45.77653 | 11.80245 | 22628 ft | 395 kts | 333° |
| 2026-05-04 19:24 | 45.80134 | 11.78510 | 23179 ft | 399 kts | 333° |
| 2026-05-04 19:25 | 45.82643 | 11.76757 | 23702 ft | 403 kts | 333° |
| 2026-05-04 19:25 | 45.85174 | 11.74998 | 24157 ft | 406 kts | 333° |
| 2026-05-04 19:25 | 45.87733 | 11.73227 | 24604 ft | 409 kts | 333° |
| 2026-05-04 19:25 | 45.90310 | 11.71448 | 25038 ft | 412 kts | 333° |
| 2026-05-04 19:26 | 45.92906 | 11.69658 | 25457 ft | 416 kts | 333° |
| 2026-05-04 19:26 | 45.95526 | 11.67864 | 25865 ft | 419 kts | 333° |
| 2026-05-04 19:26 | 45.98180 | 11.66085 | 26223 ft | 422 kts | 334° |
| 2026-05-04 19:26 | 46.00859 | 11.64309 | 26578 ft | 425 kts | 334° |
| 2026-05-04 19:27 | 46.03555 | 11.62530 | 26966 ft | 428 kts | 334° |
| 2026-05-04 19:27 | 46.06270 | 11.60738 | 27343 ft | 431 kts | 333° |
| 2026-05-04 19:27 | 46.08998 | 11.58929 | 27729 ft | 434 kts | 333° |
| 2026-05-04 19:27 | 46.11745 | 11.57096 | 28085 ft | 437 kts | 333° |
| 2026-05-04 19:28 | 46.14512 | 11.55243 | 28454 ft | 440 kts | 333° |
| 2026-05-04 19:28 | 46.17297 | 11.53373 | 28790 ft | 443 kts | 333° |
| 2026-05-04 19:28 | 46.20094 | 11.51489 | 29131 ft | 445 kts | 333° |
| 2026-05-04 19:28 | 46.22908 | 11.49590 | 29474 ft | 448 kts | 333° |
| 2026-05-04 19:29 | 46.25744 | 11.47680 | 29809 ft | 450 kts | 333° |
| 2026-05-04 19:29 | 46.28589 | 11.45765 | 30123 ft | 452 kts | 333° |
| 2026-05-04 19:29 | 46.31449 | 11.43836 | 30400 ft | 455 kts | 333° |
| 2026-05-04 19:29 | 46.34318 | 11.41899 | 30695 ft | 456 kts | 333° |
| 2026-05-04 19:30 | 46.37196 | 11.39949 | 30992 ft | 457 kts | 332° |
| 2026-05-04 19:30 | 46.40064 | 11.38001 | 31282 ft | 458 kts | 332° |
| 2026-05-04 19:30 | 46.42950 | 11.36042 | 31549 ft | 459 kts | 332° |
| 2026-05-04 19:30 | 46.45836 | 11.34085 | 31914 ft | 458 kts | 332° |
| 2026-05-04 19:31 | 46.48707 | 11.32137 | 32013 ft | 452 kts | 332° |
| 2026-05-04 19:31 | 46.51502 | 11.30240 | 32031 ft | 435 kts | 332° |
| 2026-05-04 19:31 | 46.54217 | 11.28394 | 32031 ft | 428 kts | 332° |
| 2026-05-04 19:32 | 46.59583 | 11.24738 | 32047 ft | 424 kts | 332° |
| 2026-05-04 19:32 | 46.64900 | 11.21094 | 32070 ft | 424 kts | 332° |
| 2026-05-04 19:33 | 46.70244 | 11.17423 | 32090 ft | 424 kts | 332° |
| 2026-05-04 19:33 | 46.75534 | 11.13786 | 32101 ft | 423 kts | 332° |
| 2026-05-04 19:34 | 46.80859 | 11.10124 | 32110 ft | 423 kts | 332° |
| 2026-05-04 19:34 | 46.86182 | 11.06452 | 32101 ft | 423 kts | 332° |
| 2026-05-04 19:35 | 46.91542 | 11.02881 | 32090 ft | 423 kts | 333° |
| 2026-05-04 19:35 | 46.96923 | 10.99411 | 32078 ft | 422 kts | 333° |
| 2026-05-04 19:36 | 47.02299 | 10.95914 | 32068 ft | 423 kts | 333° |
| 2026-05-04 19:36 | 47.07665 | 10.92379 | 32054 ft | 422 kts | 333° |
| 2026-05-04 19:37 | 47.13018 | 10.88846 | 32038 ft | 422 kts | 334° |
| 2026-05-04 19:37 | 47.18395 | 10.85309 | 32039 ft | 423 kts | 334° |
| 2026-05-04 19:38 | 47.23504 | 10.81933 | 32032 ft | 422 kts | 333° |
| 2026-05-04 19:38 | 47.28856 | 10.78374 | 32014 ft | 422 kts | 333° |
| 2026-05-04 19:39 | 47.34216 | 10.74814 | 32006 ft | 422 kts | 333° |
| 2026-05-04 19:39 | 47.39470 | 10.71081 | 31992 ft | 420 kts | 326° |
| 2026-05-04 19:40 | 47.44276 | 10.66202 | 31984 ft | 419 kts | 323° |
| 2026-05-04 19:40 | 47.49067 | 10.61291 | 31984 ft | 419 kts | 323° |
| 2026-05-04 19:41 | 47.53863 | 10.56373 | 31981 ft | 419 kts | 322° |
| 2026-05-04 19:41 | 47.58660 | 10.51444 | 31980 ft | 420 kts | 322° |
| 2026-05-04 19:42 | 47.63435 | 10.46522 | 31981 ft | 420 kts | 322° |
| 2026-05-04 19:42 | 47.68235 | 10.41564 | 31977 ft | 420 kts | 322° |
| 2026-05-04 19:43 | 47.73025 | 10.36634 | 31977 ft | 421 kts | 325° |
| 2026-05-04 19:43 | 47.78417 | 10.33124 | 31978 ft | 426 kts | 340° |
| 2026-05-04 19:44 | 47.84068 | 10.30427 | 31979 ft | 427 kts | 340° |
| 2026-05-04 19:44 | 47.89714 | 10.27695 | 31983 ft | 427 kts | 339° |
| 2026-05-04 19:45 | 47.95368 | 10.24956 | 31983 ft | 427 kts | 339° |
| 2026-05-04 19:45 | 48.01012 | 10.22219 | 31984 ft | 428 kts | 339° |
| 2026-05-04 19:46 | 48.05741 | 10.19922 | 31986 ft | 428 kts | 339° |
| 2026-05-04 19:46 | 48.11402 | 10.17159 | 31980 ft | 428 kts | 339° |
| 2026-05-04 19:47 | 48.17065 | 10.14404 | 31957 ft | 428 kts | 339° |
| 2026-05-04 19:47 | 48.22730 | 10.11628 | 31959 ft | 428 kts | 339° |
| 2026-05-04 19:48 | 48.28393 | 10.08844 | 31958 ft | 428 kts | 339° |
| 2026-05-04 19:48 | 48.34020 | 10.06084 | 31961 ft | 429 kts | 339° |
| 2026-05-04 19:49 | 48.39694 | 10.03292 | 31958 ft | 429 kts | 339° |
| 2026-05-04 19:49 | 48.45366 | 10.00490 | 31959 ft | 429 kts | 339° |
| 2026-05-04 19:50 | 48.51040 | 9.97680 | 31959 ft | 429 kts | 339° |
| 2026-05-04 19:50 | 48.56706 | 9.94855 | 31958 ft | 429 kts | 339° |
| 2026-05-04 19:51 | 48.62379 | 9.92029 | 31958 ft | 429 kts | 338° |
| 2026-05-04 19:51 | 48.68049 | 9.89205 | 31962 ft | 429 kts | 338° |
| 2026-05-04 19:52 | 48.73689 | 9.86394 | 31965 ft | 429 kts | 338° |
| 2026-05-04 19:52 | 48.79361 | 9.83554 | 31967 ft | 429 kts | 338° |
| 2026-05-04 19:53 | 48.85040 | 9.80706 | 31973 ft | 429 kts | 338° |
| 2026-05-04 19:53 | 48.90714 | 9.77845 | 31982 ft | 429 kts | 338° |
| 2026-05-04 19:54 | 48.96393 | 9.74983 | 31990 ft | 429 kts | 338° |
| 2026-05-04 19:54 | 49.02068 | 9.72108 | 31992 ft | 429 kts | 338° |
| 2026-05-04 19:55 | 49.07743 | 9.69237 | 31994 ft | 429 kts | 338° |
| 2026-05-04 19:55 | 49.13414 | 9.66355 | 31995 ft | 430 kts | 338° |
| 2026-05-04 19:56 | 49.19050 | 9.63473 | 31991 ft | 430 kts | 338° |
| 2026-05-04 19:56 | 49.24722 | 9.60570 | 31987 ft | 430 kts | 338° |
| 2026-05-04 19:57 | 49.30403 | 9.57675 | 31984 ft | 430 kts | 338° |
| 2026-05-04 19:57 | 49.36070 | 9.54769 | 31968 ft | 429 kts | 338° |
| 2026-05-04 19:58 | 49.41738 | 9.51846 | 31976 ft | 429 kts | 338° |
| 2026-05-04 19:58 | 49.47409 | 9.48922 | 31978 ft | 429 kts | 338° |
| 2026-05-04 19:59 | 49.53077 | 9.45990 | 31982 ft | 429 kts | 338° |
| 2026-05-04 19:59 | 49.58732 | 9.43087 | 31975 ft | 430 kts | 340° |
| 2026-05-04 20:00 | 49.64690 | 9.41941 | 31987 ft | 437 kts | 0° |
| 2026-05-04 20:00 | 49.70715 | 9.42871 | 31986 ft | 438 kts | 3° |
| 2026-05-04 20:01 | 49.76777 | 9.43851 | 31983 ft | 438 kts | 3° |
| 2026-05-04 20:01 | 49.82842 | 9.44808 | 31982 ft | 438 kts | 3° |
| 2026-05-04 20:02 | 49.88907 | 9.45771 | 31987 ft | 438 kts | 3° |
| 2026-05-04 20:02 | 49.94975 | 9.46749 | 31970 ft | 438 kts | 3° |
| 2026-05-04 20:03 | 50.01038 | 9.47632 | 31978 ft | 436 kts | 357° |
| 2026-05-04 20:03 | 50.04045 | 9.47295 | 31986 ft | 431 kts | 346° |
| 2026-05-04 20:03 | 50.06925 | 9.46181 | 31988 ft | 425 kts | 336° |
| 2026-05-04 20:04 | 50.12049 | 9.41901 | 31986 ft | 414 kts | 317° |
| 2026-05-04 20:04 | 50.16509 | 9.36258 | 31987 ft | 413 kts | 316° |
| 2026-05-04 20:05 | 50.20970 | 9.30594 | 31987 ft | 413 kts | 316° |
| 2026-05-04 20:05 | 50.25407 | 9.24970 | 31987 ft | 413 kts | 316° |
| 2026-05-04 20:06 | 50.29869 | 9.19288 | 31987 ft | 413 kts | 316° |
| 2026-05-04 20:06 | 50.34325 | 9.13589 | 31990 ft | 414 kts | 316° |
| 2026-05-04 20:07 | 50.38785 | 9.07882 | 31988 ft | 414 kts | 316° |
| 2026-05-04 20:07 | 50.43247 | 9.02165 | 31986 ft | 414 kts | 316° |
| 2026-05-04 20:08 | 50.47706 | 8.96431 | 31986 ft | 414 kts | 316° |
| 2026-05-04 20:08 | 50.52167 | 8.90688 | 31988 ft | 415 kts | 316° |
| 2026-05-04 20:09 | 50.56700 | 8.85047 | 31989 ft | 416 kts | 317° |
| 2026-05-04 20:09 | 50.61332 | 8.79562 | 31989 ft | 417 kts | 318° |
| 2026-05-04 20:10 | 50.65964 | 8.74075 | 31885 ft | 415 kts | 317° |
| 2026-05-04 20:10 | 50.68249 | 8.71341 | 31626 ft | 410 kts | 317° |
| 2026-05-04 20:10 | 50.70508 | 8.68621 | 31370 ft | 408 kts | 317° |
| 2026-05-04 20:10 | 50.72750 | 8.65909 | 31075 ft | 403 kts | 317° |
| 2026-05-04 20:11 | 50.74971 | 8.63219 | 30610 ft | 401 kts | 317° |
| 2026-05-04 20:11 | 50.77174 | 8.60546 | 30152 ft | 399 kts | 317° |
| 2026-05-04 20:11 | 50.79373 | 8.57875 | 29650 ft | 397 kts | 317° |
| 2026-05-04 20:11 | 50.81547 | 8.55236 | 29216 ft | 393 kts | 317° |
| 2026-05-04 20:12 | 50.83706 | 8.52614 | 28766 ft | 389 kts | 317° |
| 2026-05-04 20:12 | 50.85845 | 8.50016 | 28359 ft | 386 kts | 317° |
| 2026-05-04 20:12 | 50.87960 | 8.47437 | 27936 ft | 382 kts | 317° |
| 2026-05-04 20:12 | 50.90046 | 8.44886 | 27508 ft | 379 kts | 317° |
| 2026-05-04 20:13 | 50.92127 | 8.42342 | 27081 ft | 376 kts | 317° |
| 2026-05-04 20:13 | 50.94190 | 8.39821 | 26645 ft | 374 kts | 317° |
| 2026-05-04 20:13 | 50.96241 | 8.37305 | 26199 ft | 372 kts | 317° |
| 2026-05-04 20:13 | 50.98246 | 8.34844 | 25770 ft | 370 kts | 318° |
| 2026-05-04 20:14 | 51.00302 | 8.32321 | 25309 ft | 368 kts | 318° |
| 2026-05-04 20:14 | 51.02401 | 8.29981 | 24859 ft | 370 kts | 326° |
| 2026-05-04 20:14 | 51.04647 | 8.27977 | 24475 ft | 370 kts | 327° |
| 2026-05-04 20:14 | 51.06888 | 8.25982 | 24077 ft | 368 kts | 327° |
| 2026-05-04 20:15 | 51.09111 | 8.24005 | 23691 ft | 366 kts | 327° |
| 2026-05-04 20:15 | 51.11301 | 8.22060 | 23257 ft | 364 kts | 327° |
| 2026-05-04 20:15 | 51.13498 | 8.20105 | 22869 ft | 361 kts | 327° |
| 2026-05-04 20:15 | 51.15683 | 8.18156 | 22481 ft | 359 kts | 327° |
| 2026-05-04 20:16 | 51.17855 | 8.16220 | 22091 ft | 357 kts | 327° |
| 2026-05-04 20:16 | 51.20013 | 8.14293 | 21710 ft | 355 kts | 327° |
| 2026-05-04 20:16 | 51.22160 | 8.12380 | 21306 ft | 353 kts | 327° |
| 2026-05-04 20:16 | 51.24296 | 8.10474 | 20946 ft | 351 kts | 327° |
| 2026-05-04 20:17 | 51.26421 | 8.08571 | 20576 ft | 349 kts | 327° |
| 2026-05-04 20:17 | 51.28529 | 8.06673 | 20204 ft | 348 kts | 327° |
| 2026-05-04 20:17 | 51.30632 | 8.04777 | 19823 ft | 346 kts | 327° |
| 2026-05-04 20:17 | 51.32726 | 8.02891 | 19449 ft | 345 kts | 327° |
| 2026-05-04 20:18 | 51.34813 | 8.01014 | 19081 ft | 343 kts | 327° |
| 2026-05-04 20:18 | 51.36889 | 7.99150 | 18707 ft | 342 kts | 327° |
| 2026-05-04 20:18 | 51.38959 | 7.97289 | 18345 ft | 340 kts | 327° |
| 2026-05-04 20:18 | 51.41019 | 7.95427 | 17925 ft | 339 kts | 328° |
| 2026-05-04 20:19 | 51.43073 | 7.93575 | 17438 ft | 339 kts | 328° |
| 2026-05-04 20:19 | 51.45131 | 7.91713 | 16965 ft | 340 kts | 328° |
| 2026-05-04 20:19 | 51.47184 | 7.89847 | 16496 ft | 340 kts | 328° |
| 2026-05-04 20:19 | 51.49240 | 7.87968 | 16074 ft | 339 kts | 328° |
| 2026-05-04 20:20 | 51.51231 | 7.85981 | 15692 ft | 335 kts | 317° |
| 2026-05-04 20:20 | 51.52777 | 7.83254 | 15321 ft | 328 kts | 305° |
| 2026-05-04 20:20 | 51.54147 | 7.80333 | 14950 ft | 326 kts | 304° |
| 2026-05-04 20:20 | 51.55489 | 7.77414 | 14591 ft | 324 kts | 303° |
| 2026-05-04 20:21 | 51.56821 | 7.74494 | 14224 ft | 323 kts | 303° |
| 2026-05-04 20:21 | 51.57937 | 7.71396 | 13714 ft | 322 kts | 287° |
| 2026-05-04 20:21 | 51.57905 | 7.64445 | 12681 ft | 315 kts | 247° |
| 2026-05-04 20:22 | 51.57048 | 7.61224 | 12121 ft | 310 kts | 245° |
| 2026-05-04 20:22 | 51.56186 | 7.58055 | 11339 ft | 308 kts | 244° |
| 2026-05-04 20:22 | 51.55332 | 7.54931 | 10596 ft | 304 kts | 245° |
| 2026-05-04 20:22 | 51.54486 | 7.51832 | 9880 ft | 301 kts | 245° |
| 2026-05-04 20:23 | 51.53669 | 7.48825 | 9424 ft | 287 kts | 245° |
| 2026-05-04 20:23 | 51.52883 | 7.45932 | 8819 ft | 279 kts | 245° |
| 2026-05-04 20:23 | 51.52110 | 7.43099 | 8148 ft | 275 kts | 245° |
| 2026-05-04 20:23 | 51.51346 | 7.40307 | 7538 ft | 270 kts | 245° |
| 2026-05-04 20:24 | 51.50613 | 7.37628 | 7179 ft | 255 kts | 244° |
| 2026-05-04 20:24 | 51.49914 | 7.35076 | 6812 ft | 244 kts | 244° |
| 2026-05-04 20:24 | 51.49250 | 7.32647 | 6454 ft | 232 kts | 244° |
| 2026-05-04 20:24 | 51.48614 | 7.30331 | 6109 ft | 224 kts | 244° |
| 2026-05-04 20:25 | 51.47987 | 7.28054 | 5748 ft | 221 kts | 244° |
| 2026-05-04 20:25 | 51.47379 | 7.25846 | 5420 ft | 213 kts | 244° |
| 2026-05-04 20:25 | 51.46792 | 7.23708 | 5095 ft | 206 kts | 244° |
| 2026-05-04 20:25 | 51.46216 | 7.21615 | 4782 ft | 205 kts | 244° |
| 2026-05-04 20:26 | 51.45635 | 7.19514 | 4439 ft | 206 kts | 245° |
| 2026-05-04 20:26 | 51.45058 | 7.17418 | 4221 ft | 201 kts | 245° |
| 2026-05-04 20:26 | 51.44514 | 7.15440 | 4201 ft | 188 kts | 245° |
| 2026-05-04 20:26 | 51.43988 | 7.13536 | 4123 ft | 185 kts | 244° |
| 2026-05-04 20:27 | 51.43465 | 7.11655 | 4037 ft | 185 kts | 244° |
| 2026-05-04 20:27 | 51.42947 | 7.09801 | 3960 ft | 185 kts | 244° |
| 2026-05-04 20:27 | 51.42418 | 7.07901 | 3881 ft | 184 kts | 244° |
| 2026-05-04 20:27 | 51.41906 | 7.06045 | 3801 ft | 184 kts | 244° |
| 2026-05-04 20:28 | 51.41387 | 7.04165 | 3722 ft | 185 kts | 244° |
| 2026-05-04 20:28 | 51.40867 | 7.02289 | 3641 ft | 185 kts | 244° |
| 2026-05-04 20:28 | 51.40315 | 7.00435 | 3563 ft | 184 kts | 239° |
| 2026-05-04 20:28 | 51.39614 | 6.98690 | 3369 ft | 184 kts | 233° |
| 2026-05-04 20:29 | 51.38879 | 6.97060 | 3146 ft | 183 kts | 232° |
| 2026-05-04 20:29 | 51.38115 | 6.95422 | 2900 ft | 183 kts | 231° |
| 2026-05-04 20:29 | 51.37348 | 6.93793 | 2655 ft | 182 kts | 232° |
| 2026-05-04 20:29 | 51.36596 | 6.92202 | 2414 ft | 176 kts | 231° |
| 2026-05-04 20:30 | 51.35885 | 6.90698 | 2208 ft | 166 kts | 231° |
| 2026-05-04 20:30 | 51.35200 | 6.89252 | 2016 ft | 160 kts | 231° |
| 2026-05-04 20:30 | 51.34526 | 6.87831 | 1787 ft | 160 kts | 231° |
| 2026-05-04 20:30 | 51.33856 | 6.86418 | 1568 ft | 159 kts | 231° |
| 2026-05-04 20:31 | 51.33188 | 6.85010 | 1354 ft | 159 kts | 231° |
| 2026-05-04 20:31 | 51.32577 | 6.83721 | 1143 ft | 144 kts | 231° |
| 2026-05-04 20:31 | 51.31968 | 6.82439 | 939 ft | 138 kts | 230° |
| 2026-05-04 20:31 | 51.31394 | 6.81230 | 750 ft | 135 kts | 230° |
| 2026-05-04 20:32 | 51.30827 | 6.80039 | 564 ft | 138 kts | 231° |
| 2026-05-04 20:32 | 51.30234 | 6.78792 | 378 ft | 144 kts | 231° |
| 2026-05-04 20:32 | 51.29623 | 6.77499 | 173 ft | 145 kts | 232° |
| 2026-05-04 20:32 | 51.29055 | 6.76319 | 131 ft | 111 kts | 233° |
| 2026-05-04 20:33 | 51.28712 | 6.75601 | 127 ft | 50 kts | 232° |
| 2026-05-04 20:33 | 51.28563 | 6.75296 | 121 ft | 20 kts | 231° |
| 2026-05-04 20:33 | 51.28503 | 6.75157 | 121 ft | 14 kts | 234° |
| 2026-05-04 20:33 | 51.28441 | 6.75022 | 120 ft | 19 kts | 233° |
| 2026-05-04 20:34 | 51.28377 | 6.74939 | 119 ft | 17 kts | 185° |
| 2026-05-04 20:34 | 51.28283 | 6.74996 | 119 ft | 13 kts | 154° |
| 2026-05-04 20:34 | 51.28206 | 6.75059 | 121 ft | 11 kts | 152° |
| 2026-05-04 20:34 | 51.28146 | 6.75106 | 120 ft | 8 kts | 154° |
| 2026-05-04 20:35 | 51.28114 | 6.75131 | 120 ft | 2 kts | 153° |
| 2026-05-04 20:35 | 51.28111 | 6.75134 | 120 ft | 0 kts | 153° |
| 2026-05-04 20:36 | 51.28091 | 6.75149 | 123 ft | 8 kts | 154° |
| 2026-05-04 20:36 | 51.28050 | 6.75182 | 119 ft | 4 kts | 153° |
| 2026-05-04 20:36 | 51.28041 | 6.75189 | 120 ft | 0 kts | 153° |
| 2026-05-04 20:36 | 51.28025 | 6.75202 | 122 ft | 5 kts | 153° |
| 2026-05-04 20:37 | 51.27987 | 6.75234 | 122 ft | 8 kts | 152° |
| 2026-05-04 20:37 | 51.27927 | 6.75284 | 123 ft | 7 kts | 152° |
| 2026-05-04 20:37 | 51.27893 | 6.75312 | 122 ft | 0 kts | 152° |
| 2026-05-04 20:37 | 51.27890 | 6.75315 | 125 ft | 2 kts | 152° |
| 2026-05-04 20:38 | 51.27868 | 6.75334 | 123 ft | 5 kts | 151° |
| 2026-05-04 20:38 | 51.27838 | 6.75373 | 123 ft | 6 kts | 118° |
| 2026-05-04 20:38 | 51.27851 | 6.75437 | 124 ft | 7 kts | 56° |
| 2026-05-04 20:38 | 51.27880 | 6.75503 | 128 ft | 8 kts | 53° |
| 2026-05-04 20:39 | 51.27901 | 6.75549 | 128 ft | 4 kts | 54° |
| 2026-05-04 20:39 | 51.27920 | 6.75590 | 128 ft | 5 kts | 54° |
| 2026-05-04 20:39 | 51.27948 | 6.75644 | 127 ft | 7 kts | 51° |
| 2026-05-04 20:39 | 51.27983 | 6.75718 | 129 ft | 10 kts | 53° |
| 2026-05-04 20:40 | 51.27971 | 6.75810 | 125 ft | 10 kts | 159° |
| 2026-05-04 20:40 | 51.27901 | 6.75817 | 129 ft | 8 kts | 180° |
| 2026-05-04 20:40 | 51.27864 | 6.75830 | 125 ft | 3 kts | 147° |
| 2026-05-04 20:40 | 51.27846 | 6.75893 | 129 ft | 10 kts | 94° |
| 2026-05-04 20:41 | 51.27843 | 6.75992 | 129 ft | 7 kts | 92° |
| 2026-05-04 20:41 | 51.27843 | 6.76044 | 129 ft | 4 kts | 85° |
| 2026-05-04 20:42 | 51.27942 | 6.76181 | 128 ft | 0 kts | 89° |